Terminal Aerodrome Forecast
Issued by NWS Melbourne, FL

Home | Current Version | Previous Version | Text Only | Print | Product List | Glossary On
Versions: 1 2 3 4 5 6 7 8 9 10 11 12 13 14
353
FTUS42 KMLB 210527
TAFMLB
TAF
KMLB 210527Z 2106/2206 12003KT P6SM SCT020 BKN150
     FM210800 09005KT P6SM VCSH SCT020 SCT150
     FM211400 10011KT P6SM SCT025
     FM220100 09009KT P6SM FEW025=

USA.gov is the U.S. government's official web portal to all federal, state and local government web resources and services.